createdAt,value
2022-10-01T00:02:09.366Z,82.00
2022-10-01T00:04:37.494Z,81.60
2022-10-01T00:07:09.757Z,81.60
2022-10-01T00:09:36.682Z,81.40
2022-10-01T00:12:03.669Z,81.40
2022-10-01T00:14:30.487Z,81.40
2022-10-01T00:16:57.287Z,81.30
2022-10-01T00:19:24.058Z,81.20
2022-10-01T00:21:50.952Z,81.00
2022-10-01T00:24:17.751Z,80.90
2022-10-01T00:26:45.533Z,80.70
2022-10-01T00:29:14.602Z,80.50
2022-10-01T00:31:41.922Z,80.50
2022-10-01T00:34:12.438Z,80.60
2022-10-01T00:36:39.856Z,80.80
2022-10-01T00:39:06.608Z,80.80
2022-10-01T00:41:35.059Z,80.80
2022-10-01T00:44:23.823Z,80.80
2022-10-01T00:46:55.363Z,80.80
2022-10-01T00:49:26.368Z,80.70
2022-10-01T00:51:57.945Z,80.80
2022-10-01T00:54:32.779Z,80.90
2022-10-01T00:57:02.437Z,80.80
2022-10-01T00:59:30.855Z,80.80
2022-10-01T01:01:57.792Z,81.00
2022-10-01T01:04:24.614Z,81.00
2022-10-01T01:06:58.305Z,81.00
2022-10-01T01:09:40.321Z,81.20
2022-10-01T01:12:21.152Z,81.20
2022-10-01T01:15:18.104Z,81.30
2022-10-01T01:18:02.653Z,81.50
2022-10-01T01:20:40.102Z,81.40
2022-10-01T01:23:16.096Z,81.00
2022-10-01T01:25:53.782Z,80.70
2022-10-01T01:28:33.881Z,80.20
2022-10-01T01:31:09.245Z,79.80
2022-10-01T01:33:40.868Z,79.40
2022-10-01T01:36:23.328Z,79.20
2022-10-01T01:38:54.647Z,79.20
2022-10-01T01:41:24.382Z,79.00
2022-10-01T01:43:56.427Z,79.00
2022-10-01T01:46:33.769Z,79.00
2022-10-01T01:49:02.140Z,78.60
2022-10-01T01:51:53.951Z,78.40
2022-10-01T01:54:20.884Z,78.10
2022-10-01T01:56:51.637Z,78.10
2022-10-01T01:59:19.453Z,77.90
2022-10-01T02:01:49.219Z,77.80
2022-10-01T02:04:44.303Z,77.90
2022-10-01T02:07:32.601Z,77.80
2022-10-01T02:10:37.038Z,78.20
2022-10-01T02:13:24.009Z,78.30
2022-10-01T02:16:25.302Z,78.10
2022-10-01T02:19:13.114Z,78.10
2022-10-01T02:21:52.257Z,78.20
2022-10-01T02:24:33.061Z,78.20
2022-10-01T02:27:04.475Z,77.90
2022-10-01T02:29:32.340Z,77.60
2022-10-01T02:32:02.130Z,77.50
2022-10-01T02:34:32.820Z,77.50
2022-10-01T02:37:03.960Z,77.20
2022-10-01T02:39:32.925Z,77.00
2022-10-01T02:42:00.665Z,77.00
2022-10-01T02:44:40.485Z,77.00
2022-10-01T02:47:19.710Z,77.00
2022-10-01T02:49:47.710Z,77.10
2022-10-01T02:52:24.556Z,77.40
2022-10-01T02:54:58.015Z,77.80
2022-10-01T02:57:27.446Z,78.10
2022-10-01T02:59:59.741Z,78.30
2022-10-01T03:02:31.595Z,78.60
2022-10-01T03:04:59.545Z,78.80
2022-10-01T03:07:31.229Z,78.80
2022-10-01T03:09:58.060Z,78.70
2022-10-01T03:12:27.526Z,78.50
2022-10-01T03:14:54.231Z,78.50
2022-10-01T03:17:21.459Z,78.50
2022-10-01T03:19:50.834Z,78.50
2022-10-01T03:22:22.695Z,78.50
2022-10-01T03:24:55.387Z,78.60
2022-10-01T03:27:22.754Z,78.50
2022-10-01T03:29:49.879Z,78.30
2022-10-01T03:32:17.289Z,78.40
2022-10-01T03:34:47.355Z,78.40
2022-10-01T03:37:14.109Z,78.50
2022-10-01T03:39:40.839Z,78.70
2022-10-01T03:42:10.760Z,79.00
2022-10-01T03:44:37.494Z,79.10
2022-10-01T03:47:04.224Z,79.20
2022-10-01T03:49:36.116Z,79.40
2022-10-01T03:52:04.097Z,79.50
2022-10-01T03:54:31.288Z,79.80
2022-10-01T03:57:00.488Z,79.80
2022-10-01T03:59:27.416Z,80.00
2022-10-01T04:01:54.472Z,80.20
2022-10-01T04:04:26.032Z,80.30
2022-10-01T04:06:52.817Z,80.30
2022-10-01T04:09:19.489Z,80.60
2022-10-01T04:11:48.712Z,80.60
2022-10-01T04:14:15.437Z,80.80
2022-10-01T04:16:44.892Z,80.90
2022-10-01T04:19:11.609Z,81.00
2022-10-01T04:21:38.998Z,81.20
2022-10-01T04:24:05.988Z,81.20
2022-10-01T04:26:40.011Z,81.30
2022-10-01T04:29:09.945Z,81.40
2022-10-01T04:31:37.062Z,81.40
2022-10-01T04:34:10.656Z,81.40
2022-10-01T04:36:37.406Z,81.50
2022-10-01T04:39:04.462Z,81.50
2022-10-01T04:41:34.309Z,81.60
2022-10-01T04:44:01.342Z,81.70
2022-10-01T04:46:31.768Z,81.70
2022-10-01T04:48:58.673Z,81.80
2022-10-01T04:51:26.306Z,81.90
2022-10-01T04:53:53.078Z,81.90
2022-10-01T04:56:22.252Z,82.10
2022-10-01T04:58:49.075Z,82.00
2022-10-01T05:01:16.358Z,81.90
2022-10-01T05:03:43.228Z,82.00
2022-10-01T05:06:10.838Z,81.90
2022-10-01T05:08:39.351Z,81.90
2022-10-01T05:11:06.249Z,82.00
2022-10-01T05:13:35.131Z,81.90
2022-10-01T05:16:06.349Z,82.00
2022-10-01T05:18:33.446Z,82.10
2022-10-01T05:21:05.603Z,82.20
2022-10-01T05:23:33.184Z,82.20
2022-10-01T05:26:04.191Z,82.40
2022-10-01T05:28:31.778Z,82.60
2022-10-01T05:31:03.355Z,82.60
2022-10-01T05:33:34.162Z,82.70
2022-10-01T05:36:01.141Z,82.90
2022-10-01T05:38:27.822Z,83.10
2022-10-01T05:40:56.092Z,83.00
2022-10-01T05:43:23.902Z,82.90
2022-10-01T05:45:51.399Z,82.80
2022-10-01T05:48:18.333Z,82.90
2022-10-01T05:50:45.074Z,83.00
2022-10-01T05:53:15.699Z,83.00
2022-10-01T05:55:42.949Z,83.10
2022-10-01T05:58:12.204Z,83.10
2022-10-01T06:00:42.930Z,83.10
2022-10-01T06:03:13.553Z,83.10
2022-10-01T06:05:42.576Z,83.20
2022-10-01T06:08:11.391Z,83.20
2022-10-01T06:10:41.040Z,83.20
2022-10-01T06:13:13.392Z,83.10
2022-10-01T06:15:42.318Z,83.30
2022-10-01T06:18:10.881Z,83.30
2022-10-01T06:20:38.755Z,83.30
2022-10-01T06:23:10.416Z,83.30
2022-10-01T06:25:39.432Z,83.40
2022-10-01T06:28:09.372Z,83.50
2022-10-01T06:30:38.136Z,83.40
2022-10-01T06:33:08.702Z,83.50
2022-10-01T06:35:40.162Z,83.50
2022-10-01T06:38:07.981Z,83.60
2022-10-01T06:40:37.025Z,83.60
2022-10-01T06:43:04.209Z,83.50
2022-10-01T06:45:38.635Z,83.70
2022-10-01T06:48:08.802Z,83.70
2022-10-01T06:50:35.818Z,83.70
2022-10-01T06:53:02.695Z,83.70
2022-10-01T06:55:32.134Z,83.90
2022-10-01T06:58:01.346Z,83.90
2022-10-01T07:00:29.619Z,84.00
2022-10-01T07:02:56.734Z,84.10
2022-10-01T07:05:24.394Z,84.10
2022-10-01T07:07:51.630Z,84.10
2022-10-01T07:10:20.819Z,84.20
2022-10-01T07:12:49.002Z,84.20
2022-10-01T07:15:17.481Z,84.30
2022-10-01T07:17:50.157Z,84.40
2022-10-01T07:20:21.037Z,84.30
2022-10-01T07:22:48.760Z,84.30
2022-10-01T07:25:15.681Z,84.40
2022-10-01T07:27:42.514Z,84.30
2022-10-01T07:30:10.156Z,84.40
2022-10-01T07:32:36.953Z,84.20
2022-10-01T07:35:06.812Z,84.40
2022-10-01T07:37:38.378Z,84.40
2022-10-01T07:40:07.664Z,84.40
2022-10-01T07:42:35.555Z,84.40
2022-10-01T07:45:08.018Z,84.50
2022-10-01T07:47:35.195Z,84.40
2022-10-01T07:50:04.208Z,84.40
2022-10-01T07:52:31.165Z,84.40
2022-10-01T07:54:58.096Z,84.40
2022-10-01T07:57:24.952Z,84.40
2022-10-01T07:59:55.709Z,84.30
2022-10-01T08:02:22.967Z,84.30
2022-10-01T08:05:08.933Z,84.40
2022-10-01T08:07:36.204Z,84.40
2022-10-01T08:10:04.640Z,84.40
2022-10-01T08:12:34.110Z,84.40
2022-10-01T08:15:07.750Z,84.40
2022-10-01T08:17:39.895Z,84.40
2022-10-01T08:20:10.663Z,84.50
2022-10-01T08:22:41.830Z,84.40
2022-10-01T08:25:09.915Z,84.50
2022-10-01T08:27:36.713Z,84.50
2022-10-01T08:30:09.266Z,84.40
2022-10-01T08:32:36.245Z,84.60
2022-10-01T08:35:08.921Z,84.60
2022-10-01T08:37:35.658Z,84.60
2022-10-01T08:40:02.446Z,85.10
2022-10-01T08:42:53.231Z,84.70
2022-10-01T08:45:45.636Z,84.70
2022-10-01T08:48:25.389Z,84.70
2022-10-01T08:51:03.094Z,84.70
2022-10-01T08:53:49.455Z,84.70
2022-10-01T08:56:24.702Z,84.80
2022-10-01T08:59:00.322Z,84.80
2022-10-01T09:01:28.466Z,83.80
2022-10-01T09:03:56.293Z,83.80
2022-10-01T09:06:30.449Z,83.60
2022-10-01T09:08:57.116Z,83.50
2022-10-01T09:11:39.145Z,83.40
2022-10-01T09:14:40.144Z,83.50
2022-10-01T09:17:19.934Z,83.40
2022-10-01T09:19:58.803Z,82.90
2022-10-01T09:22:42.642Z,82.50
2022-10-01T09:25:10.361Z,82.20
2022-10-01T09:27:39.140Z,81.50
2022-10-01T09:30:16.441Z,81.30
2022-10-01T09:32:55.546Z,81.30
2022-10-01T09:35:46.103Z,81.20
2022-10-01T09:38:31.515Z,81.40
2022-10-01T09:40:59.116Z,81.80
2022-10-01T09:43:46.615Z,82.10
2022-10-01T09:46:21.215Z,82.40
2022-10-01T09:48:50.148Z,82.40
2022-10-01T09:51:22.428Z,82.40
2022-10-01T09:54:26.796Z,82.40
2022-10-01T09:57:01.448Z,82.20
2022-10-01T09:59:36.041Z,82.10
2022-10-01T10:02:15.338Z,82.00
2022-10-01T10:04:42.202Z,81.20
2022-10-01T10:07:18.831Z,80.50
2022-10-01T10:09:48.021Z,79.90
2022-10-01T10:12:30.927Z,79.60
2022-10-01T10:15:09.943Z,79.30
2022-10-01T10:17:40.682Z,79.30
2022-10-01T10:20:33.461Z,78.50
2022-10-01T10:23:20.537Z,78.00
2022-10-01T10:25:56.826Z,77.10
2022-10-01T10:28:24.410Z,76.10
2022-10-01T10:30:54.375Z,75.20
2022-10-01T10:33:26.238Z,75.80
2022-10-01T10:36:05.353Z,75.10
2022-10-01T10:38:34.700Z,74.90
2022-10-01T10:41:03.785Z,75.00
2022-10-01T10:43:36.660Z,75.20
2022-10-01T10:46:04.284Z,75.70
2022-10-01T10:48:39.808Z,75.60
2022-10-01T10:51:06.693Z,75.90
2022-10-01T10:53:44.284Z,76.30
2022-10-01T10:56:23.604Z,76.60
2022-10-01T10:58:53.737Z,76.00
2022-10-01T11:01:28.570Z,76.00
2022-10-01T11:04:00.291Z,75.40
2022-10-01T11:06:30.225Z,75.00
2022-10-01T11:09:04.816Z,74.60
2022-10-01T11:12:10.458Z,74.40
2022-10-01T11:14:51.599Z,74.10
2022-10-01T11:17:55.216Z,73.70
2022-10-01T11:20:51.979Z,74.20
2022-10-01T11:23:52.444Z,74.30
2022-10-01T11:26:38.274Z,73.80
2022-10-01T11:29:46.705Z,74.10
2022-10-01T11:32:24.700Z,74.90
2022-10-01T11:35:19.546Z,73.60
2022-10-01T11:38:23.657Z,73.40
2022-10-01T11:41:12.602Z,73.10
2022-10-01T11:43:42.021Z,67.00
2022-10-01T11:46:18.423Z,66.20
2022-10-01T11:48:51.029Z,67.30
2022-10-01T11:51:22.776Z,64.10
2022-10-01T11:53:55.612Z,63.60
2022-10-01T11:56:55.057Z,63.10
2022-10-01T11:59:40.310Z,62.40
2022-10-01T12:02:08.132Z,61.40
2022-10-01T12:04:46.240Z,60.00
2022-10-01T12:07:36.582Z,60.50
2022-10-01T12:10:20.079Z,59.10
2022-10-01T12:13:19.733Z,60.20
2022-10-01T12:15:46.511Z,60.60
2022-10-01T12:18:24.575Z,60.00
2022-10-01T12:20:54.629Z,61.10
2022-10-01T12:23:57.288Z,60.20
2022-10-01T12:26:43.121Z,60.60
2022-10-01T12:29:35.775Z,59.40
2022-10-01T12:32:05.607Z,61.00
2022-10-01T12:35:11.392Z,61.30
2022-10-01T12:37:46.416Z,63.90
2022-10-01T12:40:22.367Z,62.60
2022-10-01T12:42:55.070Z,62.50
2022-10-01T12:45:33.885Z,61.90
2022-10-01T12:48:07.279Z,63.00
2022-10-01T12:51:14.046Z,63.60
2022-10-01T12:53:46.215Z,64.00
2022-10-01T12:56:18.445Z,64.70
2022-10-01T12:58:52.144Z,64.30
2022-10-01T13:01:43.267Z,63.60
2022-10-01T13:04:27.017Z,63.30
2022-10-01T13:07:05.911Z,62.90
2022-10-01T13:09:38.921Z,64.00
2022-10-01T13:12:31.441Z,65.50
2022-10-01T13:14:58.929Z,64.80
2022-10-01T13:17:49.383Z,65.30
2022-10-01T13:20:34.015Z,66.90
2022-10-01T13:23:06.399Z,67.40
2022-10-01T13:25:50.389Z,68.00
2022-10-01T13:28:28.279Z,67.50
2022-10-01T13:31:01.760Z,68.10
2022-10-01T13:33:31.963Z,68.90
2022-10-01T13:36:03.632Z,68.30
2022-10-01T13:38:43.773Z,67.50
2022-10-01T13:41:23.944Z,68.00
2022-10-01T13:44:02.490Z,64.90
2022-10-01T13:46:32.191Z,65.20
2022-10-01T13:49:07.030Z,65.20
2022-10-01T13:51:36.275Z,64.30
2022-10-01T13:54:07.866Z,61.00
2022-10-01T13:56:37.512Z,62.40
2022-10-01T13:59:25.058Z,61.60
2022-10-01T14:01:51.906Z,62.30
2022-10-01T14:04:36.151Z,63.50
2022-10-01T14:07:16.259Z,63.40
2022-10-01T14:09:53.229Z,65.30
2022-10-01T14:12:45.982Z,65.10
2022-10-01T14:15:45.006Z,65.30
2022-10-01T14:18:18.555Z,63.20
2022-10-01T14:21:16.087Z,62.90
2022-10-01T14:24:05.159Z,64.60
2022-10-01T14:27:07.951Z,62.80
2022-10-01T14:29:56.315Z,64.00
2022-10-01T14:33:03.966Z,64.20
2022-10-01T14:35:40.874Z,62.80
2022-10-01T14:38:17.193Z,63.50
2022-10-01T14:40:46.862Z,64.20
2022-10-01T14:43:28.972Z,65.20
2022-10-01T14:46:06.724Z,66.70
2022-10-01T14:48:37.695Z,67.20
2022-10-01T14:51:07.299Z,67.80
2022-10-01T14:53:37.579Z,67.40
2022-10-01T14:56:12.169Z,67.80
2022-10-01T14:58:43.951Z,66.80
2022-10-01T15:01:31.799Z,67.20
2022-10-01T15:03:58.698Z,64.30
2022-10-01T15:06:29.617Z,63.80
2022-10-01T15:09:10.724Z,63.50
2022-10-01T15:11:44.280Z,61.90
2022-10-01T15:14:24.177Z,63.10
2022-10-01T15:16:53.883Z,64.60
2022-10-01T15:19:24.931Z,64.20
2022-10-01T15:21:55.545Z,67.90
2022-10-01T15:24:40.234Z,69.20
2022-10-01T15:27:09.957Z,70.10
2022-10-01T15:29:38.745Z,69.60
2022-10-01T15:32:05.802Z,70.70
2022-10-01T15:34:33.134Z,72.50
2022-10-01T15:37:01.015Z,73.40
2022-10-01T15:39:32.505Z,74.40
2022-10-01T15:42:05.495Z,74.80
2022-10-01T15:44:46.313Z,75.60
2022-10-01T15:47:25.415Z,76.30
2022-10-01T15:50:09.972Z,76.70
2022-10-01T15:52:52.045Z,76.80
2022-10-01T15:55:28.101Z,77.10
2022-10-01T15:58:11.566Z,77.40
2022-10-01T16:00:50.077Z,76.90
2022-10-01T16:03:24.056Z,76.90
2022-10-01T16:05:54.905Z,77.80
2022-10-01T16:08:24.434Z,77.80
2022-10-01T16:11:13.174Z,78.10
2022-10-01T16:13:44.650Z,78.20
2022-10-01T16:16:19.387Z,78.80
2022-10-01T16:18:53.983Z,79.20
2022-10-01T16:21:24.365Z,79.60
2022-10-01T16:23:53.704Z,79.90
2022-10-01T16:26:32.181Z,79.90
2022-10-01T16:29:22.157Z,80.20
2022-10-01T16:31:57.901Z,80.10
2022-10-01T16:34:29.571Z,80.50
2022-10-01T16:36:56.359Z,80.20
2022-10-01T16:39:25.796Z,80.60
2022-10-01T16:42:19.222Z,80.90
2022-10-01T16:44:42.319Z,81.20
2022-10-01T16:47:14.155Z,81.60
2022-10-01T16:49:41.357Z,81.90
2022-10-01T16:52:16.469Z,82.20
2022-10-01T16:54:45.003Z,82.50
2022-10-01T16:57:11.723Z,82.70
2022-10-01T16:59:39.008Z,82.80
2022-10-01T17:02:10.324Z,83.10
2022-10-01T17:04:37.156Z,83.10
2022-10-01T17:07:06.094Z,83.10
2022-10-01T17:09:33.156Z,83.20
2022-10-01T17:12:01.670Z,83.20
2022-10-01T17:14:28.861Z,83.30
2022-10-01T17:16:55.647Z,83.30
2022-10-01T17:19:22.410Z,83.00
2022-10-01T17:21:49.108Z,82.70
2022-10-01T17:24:15.892Z,82.60
2022-10-01T17:26:45.320Z,82.70
2022-10-01T17:29:12.818Z,82.70
2022-10-01T17:31:41.109Z,82.60
2022-10-01T17:34:08.551Z,82.80
2022-10-01T17:36:37.741Z,83.00
2022-10-01T17:39:07.011Z,83.00
2022-10-01T17:41:33.873Z,83.10
2022-10-01T17:44:00.771Z,83.10
2022-10-01T17:46:28.804Z,83.20
2022-10-01T17:48:57.868Z,83.20
2022-10-01T17:51:26.874Z,83.30
2022-10-01T17:53:56.325Z,83.50
2022-10-01T17:56:27.741Z,83.80
2022-10-01T17:58:56.878Z,84.10
2022-10-01T18:01:23.958Z,84.20
2022-10-01T18:03:55.634Z,84.30
2022-10-01T18:06:23.926Z,84.30
2022-10-01T18:08:55.902Z,84.20
2022-10-01T18:11:24.871Z,83.90
2022-10-01T18:13:54.253Z,83.90
2022-10-01T18:16:21.896Z,83.70
2022-10-01T18:21:48.315Z,83.40
2022-10-01T18:24:16.050Z,83.50
2022-10-01T18:26:45.553Z,83.50
2022-10-01T18:29:19.045Z,83.60
2022-10-01T18:31:45.916Z,83.80
2022-10-01T18:34:25.203Z,83.80
2022-10-01T18:37:06.941Z,84.00
2022-10-01T18:39:45.630Z,83.80
2022-10-01T18:42:17.326Z,83.80
2022-10-01T18:44:46.416Z,84.10
2022-10-01T18:47:56.536Z,83.90
2022-10-01T18:50:50.623Z,83.80
2022-10-01T18:53:29.369Z,83.70
2022-10-01T18:56:18.005Z,83.70
2022-10-01T18:58:55.080Z,83.70
2022-10-01T19:01:27.887Z,83.60
2022-10-01T19:04:25.473Z,83.70
2022-10-01T19:07:46.790Z,83.80
2022-10-01T19:10:16.259Z,83.90
2022-10-01T19:12:58.585Z,84.00
2022-10-01T19:15:46.273Z,84.00
2022-10-01T19:18:16.114Z,83.80
2022-10-01T19:20:49.877Z,83.60
2022-10-01T19:23:29.918Z,83.70
2022-10-01T19:26:19.939Z,83.50
2022-10-01T19:29:04.530Z,83.40
2022-10-01T19:31:56.705Z,83.50
2022-10-01T19:34:45.534Z,83.50
2022-10-01T19:37:17.837Z,83.60
2022-10-01T19:39:46.125Z,83.80
2022-10-01T19:42:23.394Z,84.10
2022-10-01T19:45:18.593Z,84.30
2022-10-01T19:47:56.908Z,84.80
2022-10-01T19:50:33.691Z,84.80
2022-10-01T19:53:05.469Z,85.00
2022-10-01T19:55:38.808Z,85.10
2022-10-01T19:58:17.524Z,85.10
2022-10-01T20:00:49.560Z,85.20
2022-10-01T20:03:41.975Z,85.30
2022-10-01T20:06:33.264Z,85.20
2022-10-01T20:09:03.097Z,85.10
2022-10-01T20:11:51.581Z,85.00
2022-10-01T20:15:08.919Z,84.90
2022-10-01T20:18:03.634Z,85.00
2022-10-01T20:20:43.600Z,84.90
2022-10-01T20:23:40.345Z,84.90
2022-10-01T20:26:35.163Z,85.00
2022-10-01T20:29:41.684Z,84.70
2022-10-01T20:32:15.623Z,84.80
2022-10-01T20:34:57.695Z,84.60
2022-10-01T20:37:36.391Z,84.60
2022-10-01T20:40:34.480Z,84.60
2022-10-01T20:43:17.257Z,84.40
2022-10-01T20:45:47.160Z,84.40
2022-10-01T20:48:19.305Z,85.30
2022-10-01T20:50:53.954Z,84.60
2022-10-01T20:53:32.097Z,84.60
2022-10-01T20:56:10.191Z,84.70
2022-10-01T20:58:46.034Z,84.80
2022-10-01T21:01:23.943Z,85.20
2022-10-01T21:04:10.482Z,84.80
2022-10-01T21:06:44.024Z,84.80
2022-10-01T21:09:28.798Z,84.80
2022-10-01T21:12:22.772Z,84.80
2022-10-01T21:14:56.672Z,84.80
2022-10-01T21:17:44.379Z,85.20
2022-10-01T21:20:39.903Z,85.10
2022-10-01T21:23:50.941Z,86.00
2022-10-01T21:26:39.903Z,86.00
2022-10-01T21:29:46.624Z,86.00
2022-10-01T21:32:42.836Z,86.00
2022-10-01T21:35:40.384Z,86.00
2022-10-01T21:38:28.303Z,86.00
2022-10-01T21:42:59.570Z,85.50
2022-10-01T21:45:49.751Z,85.90
2022-10-01T21:48:19.331Z,85.60
2022-10-01T21:50:54.683Z,85.50
2022-10-01T21:53:25.407Z,85.40
2022-10-01T21:56:08.012Z,85.40
2022-10-01T21:58:49.767Z,85.20
2022-10-01T22:01:35.655Z,85.10
2022-10-01T22:04:35.310Z,85.00
2022-10-01T22:07:28.085Z,85.00
2022-10-01T22:10:16.180Z,85.00
2022-10-01T22:12:47.555Z,85.10
2022-10-01T22:15:23.168Z,85.10
2022-10-01T22:17:53.609Z,85.10
2022-10-01T22:20:28.925Z,85.00
2022-10-01T22:22:59.297Z,85.00
2022-10-01T22:25:29.313Z,84.90
2022-10-01T22:28:02.515Z,85.00
2022-10-01T22:30:33.677Z,85.00
2022-10-01T22:33:11.383Z,85.00
2022-10-01T22:35:45.414Z,85.00
2022-10-01T22:38:23.434Z,85.00
2022-10-01T22:41:10.889Z,85.00
2022-10-01T22:43:37.764Z,84.80
2022-10-01T22:46:04.475Z,84.80
2022-10-01T22:48:50.843Z,84.90
2022-10-01T22:52:05.007Z,84.90
2022-10-01T22:54:43.509Z,84.90
2022-10-01T22:57:44.279Z,85.00
2022-10-01T23:00:14.389Z,85.00
2022-10-01T23:03:18.516Z,85.10
2022-10-01T23:06:03.435Z,85.20
2022-10-01T23:08:33.480Z,85.40
2022-10-01T23:11:11.433Z,85.60
2022-10-01T23:13:41.178Z,85.70
2022-10-01T23:16:43.109Z,85.80
2022-10-01T23:19:16.818Z,86.00
2022-10-01T23:21:51.366Z,86.10
2022-10-01T23:24:33.032Z,86.20
2022-10-01T23:26:59.701Z,86.20
2022-10-01T23:29:47.957Z,86.30
2022-10-01T23:32:41.851Z,86.50
2022-10-01T23:35:20.809Z,87.10
2022-10-01T23:37:53.595Z,86.60
2022-10-01T23:40:23.218Z,86.60
2022-10-01T23:43:03.064Z,86.60
2022-10-01T23:45:41.150Z,86.70
2022-10-01T23:48:24.368Z,85.90
2022-10-01T23:51:07.244Z,86.70
2022-10-01T23:54:07.113Z,86.80
2022-10-01T23:56:58.740Z,86.70
2022-10-01T23:59:37.526Z,86.60
